Airport ID:KP52
Update Time (UTC):07/12/2022 00:11
Wind Speed (Knots):10
Wind Direction (Magnetic):130
Temperature (°C):14
Dew Point (°C):6
Humidity (%):59
Altimeter (inHg):29.97
Density Altitude (Feet):
Visibility:10+
Clouds (Hundreds of feet):FEW060 SCT075 OVC085
Present Weather:
METAR:METAR KP52 070010Z AUTO 14010KT 10SM FEW060 SCT075 OVC085 14/06 A2997 RMK AO2

The data displayed is for advisory purposes only and is not to be used for flight planning or operations.